sensor_id;sensor_type;location;lat;lon;timestamp;temperature;humidity
4548;DHT22;2286;51.570;7.090;2024-02-26T00:01:04;5.10;99.90
4548;DHT22;2286;51.570;7.090;2024-02-26T00:03:31;5.10;99.90
4548;DHT22;2286;51.570;7.090;2024-02-26T00:06:01;5.10;99.90
4548;DHT22;2286;51.570;7.090;2024-02-26T00:08:28;5.10;99.90
4548;DHT22;2286;51.570;7.090;2024-02-26T00:10:54;5.10;99.90
4548;DHT22;2286;51.570;7.090;2024-02-26T00:13:21;5.10;1.00
4548;DHT22;2286;51.570;7.090;2024-02-26T00:15:48;5.10;99.90
4548;DHT22;2286;51.570;7.090;2024-02-26T00:18:16;5.20;99.90
4548;DHT22;2286;51.570;7.090;2024-02-26T00:20:43;5.20;99.90
4548;DHT22;2286;51.570;7.090;2024-02-26T00:23:10;5.20;99.90
4548;DHT22;2286;51.570;7.090;2024-02-26T00:25:37;5.20;99.90
4548;DHT22;2286;51.570;7.090;2024-02-26T00:28:04;5.20;99.90
4548;DHT22;2286;51.570;7.090;2024-02-26T00:30:31;5.20;99.90
4548;DHT22;2286;51.570;7.090;2024-02-26T00:32:58;5.20;99.90
4548;DHT22;2286;51.570;7.090;2024-02-26T00:35:26;5.30;99.90
4548;DHT22;2286;51.570;7.090;2024-02-26T00:37:53;5.20;99.90
4548;DHT22;2286;51.570;7.090;2024-02-26T00:40:20;5.20;99.90
4548;DHT22;2286;51.570;7.090;2024-02-26T00:42:46;5.30;99.90
4548;DHT22;2286;51.570;7.090;2024-02-26T00:45:13;5.30;99.90
4548;DHT22;2286;51.570;7.090;2024-02-26T00:47:41;5.30;99.90
4548;DHT22;2286;51.570;7.090;2024-02-26T00:50:10;5.30;99.90
4548;DHT22;2286;51.570;7.090;2024-02-26T00:52:38;5.30;99.90
4548;DHT22;2286;51.570;7.090;2024-02-26T00:55:06;5.30;99.90
4548;DHT22;2286;51.570;7.090;2024-02-26T00:57:33;5.30;99.90
4548;DHT22;2286;51.570;7.090;2024-02-26T01:00:00;5.20;99.90
4548;DHT22;2286;51.570;7.090;2024-02-26T01:02:27;5.30;99.90
4548;DHT22;2286;51.570;7.090;2024-02-26T01:04:53;5.30;99.90
4548;DHT22;2286;51.570;7.090;2024-02-26T01:07:20;5.30;99.90
4548;DHT22;2286;51.570;7.090;2024-02-26T01:09:48;5.20;99.90
4548;DHT22;2286;51.570;7.090;2024-02-26T01:12:15;5.30;99.90
4548;DHT22;2286;51.570;7.090;2024-02-26T01:14:42;5.30;99.90
4548;DHT22;2286;51.570;7.090;2024-02-26T01:17:09;5.30;99.90
4548;DHT22;2286;51.570;7.090;2024-02-26T01:19:35;5.20;99.90
4548;DHT22;2286;51.570;7.090;2024-02-26T01:22:02;5.20;99.90
4548;DHT22;2286;51.570;7.090;2024-02-26T01:24:29;5.20;99.90
4548;DHT22;2286;51.570;7.090;2024-02-26T01:26:57;5.30;99.90
4548;DHT22;2286;51.570;7.090;2024-02-26T01:29:24;5.20;99.90
4548;DHT22;2286;51.570;7.090;2024-02-26T01:31:51;5.30;99.90
4548;DHT22;2286;51.570;7.090;2024-02-26T01:34:18;5.30;99.90
4548;DHT22;2286;51.570;7.090;2024-02-26T01:36:45;5.30;99.90
4548;DHT22;2286;51.570;7.090;2024-02-26T01:39:11;5.30;99.90
4548;DHT22;2286;51.570;7.090;2024-02-26T01:41:38;5.30;99.90
4548;DHT22;2286;51.570;7.090;2024-02-26T01:44:06;5.30;99.90
4548;DHT22;2286;51.570;7.090;2024-02-26T01:46:35;5.30;99.90
4548;DHT22;2286;51.570;7.090;2024-02-26T01:49:02;5.40;99.90
4548;DHT22;2286;51.570;7.090;2024-02-26T01:51:31;5.40;99.90
4548;DHT22;2286;51.570;7.090;2024-02-26T01:53:59;5.30;99.90
4548;DHT22;2286;51.570;7.090;2024-02-26T01:56:27;5.40;99.90
4548;DHT22;2286;51.570;7.090;2024-02-26T01:58:57;5.40;99.90
4548;DHT22;2286;51.570;7.090;2024-02-26T02:01:27;5.40;99.90
4548;DHT22;2286;51.570;7.090;2024-02-26T02:03:54;5.40;99.90
4548;DHT22;2286;51.570;7.090;2024-02-26T02:06:23;5.30;99.90
4548;DHT22;2286;51.570;7.090;2024-02-26T02:08:49;5.30;99.90
4548;DHT22;2286;51.570;7.090;2024-02-26T02:11:17;5.30;99.90
4548;DHT22;2286;51.570;7.090;2024-02-26T02:13:43;5.30;99.90
4548;DHT22;2286;51.570;7.090;2024-02-26T02:16:10;5.30;99.90
4548;DHT22;2286;51.570;7.090;2024-02-26T02:18:38;5.30;99.90
4548;DHT22;2286;51.570;7.090;2024-02-26T02:21:06;5.30;99.90
4548;DHT22;2286;51.570;7.090;2024-02-26T02:23:33;5.30;99.90
4548;DHT22;2286;51.570;7.090;2024-02-26T02:26:00;5.30;99.90
4548;DHT22;2286;51.570;7.090;2024-02-26T02:28:27;5.30;99.90
4548;DHT22;2286;51.570;7.090;2024-02-26T02:30:54;5.40;99.90
4548;DHT22;2286;51.570;7.090;2024-02-26T02:33:22;5.40;99.90
4548;DHT22;2286;51.570;7.090;2024-02-26T02:35:49;5.40;99.90
4548;DHT22;2286;51.570;7.090;2024-02-26T02:38:17;5.40;99.90
4548;DHT22;2286;51.570;7.090;2024-02-26T02:40:44;5.40;99.90
4548;DHT22;2286;51.570;7.090;2024-02-26T02:43:11;5.40;99.90
4548;DHT22;2286;51.570;7.090;2024-02-26T02:45:37;5.40;99.90
4548;DHT22;2286;51.570;7.090;2024-02-26T02:48:04;5.40;99.90
4548;DHT22;2286;51.570;7.090;2024-02-26T02:50:31;5.40;99.90
4548;DHT22;2286;51.570;7.090;2024-02-26T02:52:58;5.40;99.90
4548;DHT22;2286;51.570;7.090;2024-02-26T02:55:27;5.40;99.90
4548;DHT22;2286;51.570;7.090;2024-02-26T02:57:53;5.40;94.00
4548;DHT22;2286;51.570;7.090;2024-02-26T03:00:20;5.40;99.90
4548;DHT22;2286;51.570;7.090;2024-02-26T03:02:48;5.40;99.90
4548;DHT22;2286;51.570;7.090;2024-02-26T03:05:15;5.40;99.90
4548;DHT22;2286;51.570;7.090;2024-02-26T03:07:41;5.40;99.90
4548;DHT22;2286;51.570;7.090;2024-02-26T03:10:08;5.40;99.90
4548;DHT22;2286;51.570;7.090;2024-02-26T03:12:36;5.40;99.90
4548;DHT22;2286;51.570;7.090;2024-02-26T03:15:03;5.50;99.90
4548;DHT22;2286;51.570;7.090;2024-02-26T03:17:30;5.50;64.50
4548;DHT22;2286;51.570;7.090;2024-02-26T03:19:57;5.50;69.80
4548;DHT22;2286;51.570;7.090;2024-02-26T03:22:23;5.50;99.90
4548;DHT22;2286;51.570;7.090;2024-02-26T03:24:50;5.50;99.90
4548;DHT22;2286;51.570;7.090;2024-02-26T03:27:17;5.40;99.90
4548;DHT22;2286;51.570;7.090;2024-02-26T03:29:45;5.50;99.90
4548;DHT22;2286;51.570;7.090;2024-02-26T03:32:13;5.50;99.90
4548;DHT22;2286;51.570;7.090;2024-02-26T03:34:40;5.50;99.90
4548;DHT22;2286;51.570;7.090;2024-02-26T03:37:07;5.50;99.90
4548;DHT22;2286;51.570;7.090;2024-02-26T03:39:36;5.50;99.90
4548;DHT22;2286;51.570;7.090;2024-02-26T03:42:03;5.50;99.90
4548;DHT22;2286;51.570;7.090;2024-02-26T03:44:30;5.40;99.90
4548;DHT22;2286;51.570;7.090;2024-02-26T03:46:58;5.50;99.90
4548;DHT22;2286;51.570;7.090;2024-02-26T03:49:25;5.50;99.90
4548;DHT22;2286;51.570;7.090;2024-02-26T03:51:52;5.50;99.90
4548;DHT22;2286;51.570;7.090;2024-02-26T03:54:19;5.40;99.90
4548;DHT22;2286;51.570;7.090;2024-02-26T03:56:46;5.40;99.90
4548;DHT22;2286;51.570;7.090;2024-02-26T03:59:13;5.40;1.00
4548;DHT22;2286;51.570;7.090;2024-02-26T04:01:45;5.40;1.00
4548;DHT22;2286;51.570;7.090;2024-02-26T04:04:14;5.40;1.00
4548;DHT22;2286;51.570;7.090;2024-02-26T04:06:44;5.40;1.00
4548;DHT22;2286;51.570;7.090;2024-02-26T04:09:11;5.40;1.00
4548;DHT22;2286;51.570;7.090;2024-02-26T04:11:38;5.40;99.90
4548;DHT22;2286;51.570;7.090;2024-02-26T04:14:05;5.30;99.90
4548;DHT22;2286;51.570;7.090;2024-02-26T04:16:34;5.30;99.90
4548;DHT22;2286;51.570;7.090;2024-02-26T04:19:01;5.30;1.00
4548;DHT22;2286;51.570;7.090;2024-02-26T04:21:29;5.20;1.00
4548;DHT22;2286;51.570;7.090;2024-02-26T04:23:56;5.20;1.00
4548;DHT22;2286;51.570;7.090;2024-02-26T04:26:27;5.10;1.00
4548;DHT22;2286;51.570;7.090;2024-02-26T04:28:54;5.10;99.90
4548;DHT22;2286;51.570;7.090;2024-02-26T04:31:21;5.10;99.90
4548;DHT22;2286;51.570;7.090;2024-02-26T04:33:48;5.10;99.90
4548;DHT22;2286;51.570;7.090;2024-02-26T04:36:15;5.10;99.90
4548;DHT22;2286;51.570;7.090;2024-02-26T04:38:43;5.00;1.00
4548;DHT22;2286;51.570;7.090;2024-02-26T04:41:10;5.00;1.00
4548;DHT22;2286;51.570;7.090;2024-02-26T04:43:38;5.00;1.00
4548;DHT22;2286;51.570;7.090;2024-02-26T04:46:07;5.00;1.00
4548;DHT22;2286;51.570;7.090;2024-02-26T04:48:34;5.00;1.00
4548;DHT22;2286;51.570;7.090;2024-02-26T04:51:02;5.00;1.00
4548;DHT22;2286;51.570;7.090;2024-02-26T04:53:29;5.00;1.00
4548;DHT22;2286;51.570;7.090;2024-02-26T04:55:57;5.00;1.00
4548;DHT22;2286;51.570;7.090;2024-02-26T04:58:24;4.90;1.00
4548;DHT22;2286;51.570;7.090;2024-02-26T05:00:51;5.00;1.00
4548;DHT22;2286;51.570;7.090;2024-02-26T05:03:18;5.00;1.00
4548;DHT22;2286;51.570;7.090;2024-02-26T05:05:45;5.00;1.00
4548;DHT22;2286;51.570;7.090;2024-02-26T05:08:12;5.00;17.70
4548;DHT22;2286;51.570;7.090;2024-02-26T05:10:39;5.00;27.00
4548;DHT22;2286;51.570;7.090;2024-02-26T05:13:08;5.00;1.00
4548;DHT22;2286;51.570;7.090;2024-02-26T05:15:35;5.00;1.00
4548;DHT22;2286;51.570;7.090;2024-02-26T05:18:02;4.90;1.00
4548;DHT22;2286;51.570;7.090;2024-02-26T05:20:29;4.90;1.00
4548;DHT22;2286;51.570;7.090;2024-02-26T05:22:56;4.90;99.90
4548;DHT22;2286;51.570;7.090;2024-02-26T05:25:25;4.90;99.90
4548;DHT22;2286;51.570;7.090;2024-02-26T05:27:52;5.00;99.90
4548;DHT22;2286;51.570;7.090;2024-02-26T05:30:20;4.90;99.90
4548;DHT22;2286;51.570;7.090;2024-02-26T05:32:47;4.90;99.90
4548;DHT22;2286;51.570;7.090;2024-02-26T05:35:14;4.90;99.90
4548;DHT22;2286;51.570;7.090;2024-02-26T05:37:41;4.90;99.90
4548;DHT22;2286;51.570;7.090;2024-02-26T05:40:09;4.90;99.90
4548;DHT22;2286;51.570;7.090;2024-02-26T05:42:36;4.90;99.90
4548;DHT22;2286;51.570;7.090;2024-02-26T05:45:04;4.90;1.00
4548;DHT22;2286;51.570;7.090;2024-02-26T05:47:33;4.90;1.00
4548;DHT22;2286;51.570;7.090;2024-02-26T05:50:00;4.90;1.00
4548;DHT22;2286;51.570;7.090;2024-02-26T05:52:27;4.90;96.80
4548;DHT22;2286;51.570;7.090;2024-02-26T05:54:55;4.90;99.90
4548;DHT22;2286;51.570;7.090;2024-02-26T05:57:22;4.90;99.90
4548;DHT22;2286;51.570;7.090;2024-02-26T05:59:49;4.90;99.90
4548;DHT22;2286;51.570;7.090;2024-02-26T06:02:16;4.90;99.90
4548;DHT22;2286;51.570;7.090;2024-02-26T06:04:44;4.90;99.90
4548;DHT22;2286;51.570;7.090;2024-02-26T06:07:12;4.90;1.00
4548;DHT22;2286;51.570;7.090;2024-02-26T06:09:39;4.90;1.00
4548;DHT22;2286;51.570;7.090;2024-02-26T06:12:07;4.80;1.00
4548;DHT22;2286;51.570;7.090;2024-02-26T06:14:34;4.80;1.00
4548;DHT22;2286;51.570;7.090;2024-02-26T06:17:01;4.80;99.90
4548;DHT22;2286;51.570;7.090;2024-02-26T06:19:28;4.80;99.90
4548;DHT22;2286;51.570;7.090;2024-02-26T06:21:56;4.80;99.90
4548;DHT22;2286;51.570;7.090;2024-02-26T06:24:23;4.80;1.00
4548;DHT22;2286;51.570;7.090;2024-02-26T06:26:50;4.80;1.00
4548;DHT22;2286;51.570;7.090;2024-02-26T06:29:17;4.80;1.00
4548;DHT22;2286;51.570;7.090;2024-02-26T06:31:44;4.80;54.70
4548;DHT22;2286;51.570;7.090;2024-02-26T06:34:13;4.80;94.90
4548;DHT22;2286;51.570;7.090;2024-02-26T06:36:40;4.80;99.90
4548;DHT22;2286;51.570;7.090;2024-02-26T06:39:08;4.80;99.90
4548;DHT22;2286;51.570;7.090;2024-02-26T06:41:36;4.80;99.90
4548;DHT22;2286;51.570;7.090;2024-02-26T06:44:04;4.80;99.90
4548;DHT22;2286;51.570;7.090;2024-02-26T06:46:32;4.80;99.90
4548;DHT22;2286;51.570;7.090;2024-02-26T06:48:59;4.80;99.90
4548;DHT22;2286;51.570;7.090;2024-02-26T06:51:26;4.80;99.90
4548;DHT22;2286;51.570;7.090;2024-02-26T06:53:53;4.80;99.90
4548;DHT22;2286;51.570;7.090;2024-02-26T06:56:21;4.90;99.90
4548;DHT22;2286;51.570;7.090;2024-02-26T06:58:48;4.90;99.90
4548;DHT22;2286;51.570;7.090;2024-02-26T07:01:15;4.90;99.90
4548;DHT22;2286;51.570;7.090;2024-02-26T07:03:42;4.90;99.90
4548;DHT22;2286;51.570;7.090;2024-02-26T07:06:09;4.90;99.90
4548;DHT22;2286;51.570;7.090;2024-02-26T07:08:37;4.90;99.90
4548;DHT22;2286;51.570;7.090;2024-02-26T07:11:07;5.00;99.90
4548;DHT22;2286;51.570;7.090;2024-02-26T07:13:36;5.00;78.40
4548;DHT22;2286;51.570;7.090;2024-02-26T07:16:03;5.00;1.20
4548;DHT22;2286;51.570;7.090;2024-02-26T07:18:31;5.00;1.60
4548;DHT22;2286;51.570;7.090;2024-02-26T07:20:58;5.10;1.00
4548;DHT22;2286;51.570;7.090;2024-02-26T07:23:25;5.10;1.00
4548;DHT22;2286;51.570;7.090;2024-02-26T07:25:52;5.10;1.00
4548;DHT22;2286;51.570;7.090;2024-02-26T07:28:19;5.10;1.00
4548;DHT22;2286;51.570;7.090;2024-02-26T07:30:47;5.10;1.00
4548;DHT22;2286;51.570;7.090;2024-02-26T07:33:14;5.20;1.00
4548;DHT22;2286;51.570;7.090;2024-02-26T07:35:41;5.20;99.90
4548;DHT22;2286;51.570;7.090;2024-02-26T07:38:08;5.20;99.90
4548;DHT22;2286;51.570;7.090;2024-02-26T07:40:35;5.20;20.80
4548;DHT22;2286;51.570;7.090;2024-02-26T07:43:03;5.30;1.00
4548;DHT22;2286;51.570;7.090;2024-02-26T07:45:30;5.30;1.00
4548;DHT22;2286;51.570;7.090;2024-02-26T07:47:58;5.30;1.00
4548;DHT22;2286;51.570;7.090;2024-02-26T07:50:25;5.30;1.00
4548;DHT22;2286;51.570;7.090;2024-02-26T07:52:52;5.40;1.00
4548;DHT22;2286;51.570;7.090;2024-02-26T07:55:19;5.40;1.00
4548;DHT22;2286;51.570;7.090;2024-02-26T07:57:47;5.40;99.90
4548;DHT22;2286;51.570;7.090;2024-02-26T08:00:15;5.50;99.90
4548;DHT22;2286;51.570;7.090;2024-02-26T08:02:43;5.40;1.00
4548;DHT22;2286;51.570;7.090;2024-02-26T08:05:11;5.40;1.00
4548;DHT22;2286;51.570;7.090;2024-02-26T08:07:38;5.50;1.00
4548;DHT22;2286;51.570;7.090;2024-02-26T08:10:06;5.50;1.00
4548;DHT22;2286;51.570;7.090;2024-02-26T08:12:33;5.50;1.00
4548;DHT22;2286;51.570;7.090;2024-02-26T08:15:00;5.50;1.00
4548;DHT22;2286;51.570;7.090;2024-02-26T08:17:27;5.60;1.00
4548;DHT22;2286;51.570;7.090;2024-02-26T08:19:54;5.60;1.00
4548;DHT22;2286;51.570;7.090;2024-02-26T08:22:23;5.60;1.00
4548;DHT22;2286;51.570;7.090;2024-02-26T08:24:50;5.60;1.00
4548;DHT22;2286;51.570;7.090;2024-02-26T08:27:17;5.60;1.00
4548;DHT22;2286;51.570;7.090;2024-02-26T08:29:44;5.70;1.00
4548;DHT22;2286;51.570;7.090;2024-02-26T08:32:12;5.70;4.80
4548;DHT22;2286;51.570;7.090;2024-02-26T08:34:39;5.70;15.40
4548;DHT22;2286;51.570;7.090;2024-02-26T08:37:06;5.70;1.00
4548;DHT22;2286;51.570;7.090;2024-02-26T08:39:34;5.70;1.00
4548;DHT22;2286;51.570;7.090;2024-02-26T08:42:01;5.80;1.00
4548;DHT22;2286;51.570;7.090;2024-02-26T08:44:28;5.80;1.00
4548;DHT22;2286;51.570;7.090;2024-02-26T08:46:55;5.80;1.00
4548;DHT22;2286;51.570;7.090;2024-02-26T08:49:24;5.80;1.00
4548;DHT22;2286;51.570;7.090;2024-02-26T08:51:51;5.90;1.00
4548;DHT22;2286;51.570;7.090;2024-02-26T08:54:18;6.00;1.00
4548;DHT22;2286;51.570;7.090;2024-02-26T08:56:46;6.00;1.00
4548;DHT22;2286;51.570;7.090;2024-02-26T08:59:13;6.10;1.00
4548;DHT22;2286;51.570;7.090;2024-02-26T09:01:42;6.10;99.90
4548;DHT22;2286;51.570;7.090;2024-02-26T09:04:09;6.10;99.90
4548;DHT22;2286;51.570;7.090;2024-02-26T09:06:36;6.20;99.90
4548;DHT22;2286;51.570;7.090;2024-02-26T09:09:03;6.20;99.90
4548;DHT22;2286;51.570;7.090;2024-02-26T09:11:30;6.30;99.90
4548;DHT22;2286;51.570;7.090;2024-02-26T09:13:58;6.30;18.60
4548;DHT22;2286;51.570;7.090;2024-02-26T09:16:25;6.30;1.00
4548;DHT22;2286;51.570;7.090;2024-02-26T09:18:52;6.30;1.00
4548;DHT22;2286;51.570;7.090;2024-02-26T09:21:19;6.30;1.00
4548;DHT22;2286;51.570;7.090;2024-02-26T09:23:49;6.30;99.90
4548;DHT22;2286;51.570;7.090;2024-02-26T09:26:16;6.30;99.90
4548;DHT22;2286;51.570;7.090;2024-02-26T09:28:43;6.30;1.00
4548;DHT22;2286;51.570;7.090;2024-02-26T09:31:11;6.20;99.90
4548;DHT22;2286;51.570;7.090;2024-02-26T09:33:41;6.30;99.90
4548;DHT22;2286;51.570;7.090;2024-02-26T09:36:09;6.20;1.00
4548;DHT22;2286;51.570;7.090;2024-02-26T09:38:36;6.30;1.00
4548;DHT22;2286;51.570;7.090;2024-02-26T09:41:04;6.30;1.00
4548;DHT22;2286;51.570;7.090;2024-02-26T09:43:34;6.40;1.00
4548;DHT22;2286;51.570;7.090;2024-02-26T09:46:02;6.40;1.00
4548;DHT22;2286;51.570;7.090;2024-02-26T09:48:32;6.40;1.00
4548;DHT22;2286;51.570;7.090;2024-02-26T09:51:00;6.40;1.00
4548;DHT22;2286;51.570;7.090;2024-02-26T09:53:29;6.40;1.00
4548;DHT22;2286;51.570;7.090;2024-02-26T09:55:57;6.50;1.00
4548;DHT22;2286;51.570;7.090;2024-02-26T09:58:25;6.40;1.00
4548;DHT22;2286;51.570;7.090;2024-02-26T10:00:56;6.40;1.00
4548;DHT22;2286;51.570;7.090;2024-02-26T10:03:28;6.40;1.00
4548;DHT22;2286;51.570;7.090;2024-02-26T10:05:56;6.50;1.00
4548;DHT22;2286;51.570;7.090;2024-02-26T10:08:24;6.50;1.00
4548;DHT22;2286;51.570;7.090;2024-02-26T10:10:52;6.50;1.00
4548;DHT22;2286;51.570;7.090;2024-02-26T10:13:19;6.50;1.00
4548;DHT22;2286;51.570;7.090;2024-02-26T10:15:46;6.50;1.00
4548;DHT22;2286;51.570;7.090;2024-02-26T10:18:13;6.60;1.00
4548;DHT22;2286;51.570;7.090;2024-02-26T10:20:40;6.60;1.00
4548;DHT22;2286;51.570;7.090;2024-02-26T10:23:09;6.70;1.00
4548;DHT22;2286;51.570;7.090;2024-02-26T10:25:36;6.70;99.90
4548;DHT22;2286;51.570;7.090;2024-02-26T10:28:04;6.70;99.90
4548;DHT22;2286;51.570;7.090;2024-02-26T10:30:31;6.70;99.90
4548;DHT22;2286;51.570;7.090;2024-02-26T10:32:59;6.80;99.90
4548;DHT22;2286;51.570;7.090;2024-02-26T10:35:26;6.90;99.90
4548;DHT22;2286;51.570;7.090;2024-02-26T10:37:54;6.90;22.40
4548;DHT22;2286;51.570;7.090;2024-02-26T10:40:22;6.80;1.00
4548;DHT22;2286;51.570;7.090;2024-02-26T10:42:50;6.80;1.00
4548;DHT22;2286;51.570;7.090;2024-02-26T10:45:17;6.80;1.00
4548;DHT22;2286;51.570;7.090;2024-02-26T10:47:44;6.90;1.00
4548;DHT22;2286;51.570;7.090;2024-02-26T10:50:14;7.00;1.00
4548;DHT22;2286;51.570;7.090;2024-02-26T10:52:42;7.00;1.00
4548;DHT22;2286;51.570;7.090;2024-02-26T10:55:13;7.10;99.90
4548;DHT22;2286;51.570;7.090;2024-02-26T10:57:45;7.20;99.90
4548;DHT22;2286;51.570;7.090;2024-02-26T11:00:14;7.20;99.90
4548;DHT22;2286;51.570;7.090;2024-02-26T11:02:43;7.20;18.60
4548;DHT22;2286;51.570;7.090;2024-02-26T11:05:11;7.30;97.70
4548;DHT22;2286;51.570;7.090;2024-02-26T11:07:39;7.30;99.90
4548;DHT22;2286;51.570;7.090;2024-02-26T11:10:09;7.40;99.90
4548;DHT22;2286;51.570;7.090;2024-02-26T11:12:39;7.40;99.90
4548;DHT22;2286;51.570;7.090;2024-02-26T11:15:08;7.50;99.90
4548;DHT22;2286;51.570;7.090;2024-02-26T11:17:36;7.50;1.00
4548;DHT22;2286;51.570;7.090;2024-02-26T11:20:05;7.50;1.00
4548;DHT22;2286;51.570;7.090;2024-02-26T11:22:36;7.50;25.40
4548;DHT22;2286;51.570;7.090;2024-02-26T11:25:04;7.60;1.00
4548;DHT22;2286;51.570;7.090;2024-02-26T11:27:35;7.50;1.00
4548;DHT22;2286;51.570;7.090;2024-02-26T11:30:08;7.50;1.00
4548;DHT22;2286;51.570;7.090;2024-02-26T11:32:36;7.50;1.00
4548;DHT22;2286;51.570;7.090;2024-02-26T11:35:05;7.50;1.00
4548;DHT22;2286;51.570;7.090;2024-02-26T11:37:33;7.50;1.00
4548;DHT22;2286;51.570;7.090;2024-02-26T11:40:00;7.50;1.00
4548;DHT22;2286;51.570;7.090;2024-02-26T11:42:27;7.60;1.00
4548;DHT22;2286;51.570;7.090;2024-02-26T11:44:55;7.60;1.00
4548;DHT22;2286;51.570;7.090;2024-02-26T11:47:27;7.70;1.00
4548;DHT22;2286;51.570;7.090;2024-02-26T11:49:54;7.70;1.00
4548;DHT22;2286;51.570;7.090;2024-02-26T11:52:21;7.70;1.00
4548;DHT22;2286;51.570;7.090;2024-02-26T11:54:49;7.70;1.00
4548;DHT22;2286;51.570;7.090;2024-02-26T11:57:22;7.80;1.00
4548;DHT22;2286;51.570;7.090;2024-02-26T11:59:49;7.90;99.90
4548;DHT22;2286;51.570;7.090;2024-02-26T12:02:46;8.00;99.90
4548;DHT22;2286;51.570;7.090;2024-02-26T12:05:15;8.20;1.00
4548;DHT22;2286;51.570;7.090;2024-02-26T12:07:45;8.30;99.90
4548;DHT22;2286;51.570;7.090;2024-02-26T12:10:25;8.40;99.90
4548;DHT22;2286;51.570;7.090;2024-02-26T12:13:00;8.50;99.90
4548;DHT22;2286;51.570;7.090;2024-02-26T12:15:32;8.60;99.90
4548;DHT22;2286;51.570;7.090;2024-02-26T12:18:03;8.60;59.50
4548;DHT22;2286;51.570;7.090;2024-02-26T12:20:31;8.60;99.90
4548;DHT22;2286;51.570;7.090;2024-02-26T12:22:58;8.60;99.90
4548;DHT22;2286;51.570;7.090;2024-02-26T12:25:27;8.60;99.90
4548;DHT22;2286;51.570;7.090;2024-02-26T12:27:55;8.60;99.90
4548;DHT22;2286;51.570;7.090;2024-02-26T12:30:23;8.60;99.90
4548;DHT22;2286;51.570;7.090;2024-02-26T12:32:51;8.60;99.90
4548;DHT22;2286;51.570;7.090;2024-02-26T12:35:24;8.60;99.90
4548;DHT22;2286;51.570;7.090;2024-02-26T12:37:52;8.70;99.90
4548;DHT22;2286;51.570;7.090;2024-02-26T12:40:19;8.60;99.90
4548;DHT22;2286;51.570;7.090;2024-02-26T12:42:47;8.60;99.90
4548;DHT22;2286;51.570;7.090;2024-02-26T12:45:15;8.70;99.90
4548;DHT22;2286;51.570;7.090;2024-02-26T12:47:43;8.70;99.90
4548;DHT22;2286;51.570;7.090;2024-02-26T12:50:11;8.60;91.00
4548;DHT22;2286;51.570;7.090;2024-02-26T12:52:41;8.70;99.90
4548;DHT22;2286;51.570;7.090;2024-02-26T12:55:13;8.60;99.90
4548;DHT22;2286;51.570;7.090;2024-02-26T12:57:42;8.70;99.90
4548;DHT22;2286;51.570;7.090;2024-02-26T13:00:13;8.60;99.90
4548;DHT22;2286;51.570;7.090;2024-02-26T13:02:41;8.40;32.30
4548;DHT22;2286;51.570;7.090;2024-02-26T13:05:13;8.30;99.90
4548;DHT22;2286;51.570;7.090;2024-02-26T13:07:46;8.30;99.90
4548;DHT22;2286;51.570;7.090;2024-02-26T13:10:13;8.30;99.90
4548;DHT22;2286;51.570;7.090;2024-02-26T13:12:43;8.20;99.90
4548;DHT22;2286;51.570;7.090;2024-02-26T13:15:15;8.10;99.90
4548;DHT22;2286;51.570;7.090;2024-02-26T13:17:42;8.00;99.90
4548;DHT22;2286;51.570;7.090;2024-02-26T13:20:09;8.10;99.90
4548;DHT22;2286;51.570;7.090;2024-02-26T13:22:37;8.10;99.90
4548;DHT22;2286;51.570;7.090;2024-02-26T13:25:06;8.00;99.90
4548;DHT22;2286;51.570;7.090;2024-02-26T13:27:34;8.00;99.90
4548;DHT22;2286;51.570;7.090;2024-02-26T13:30:06;8.00;99.90
4548;DHT22;2286;51.570;7.090;2024-02-26T13:32:36;7.90;99.90
4548;DHT22;2286;51.570;7.090;2024-02-26T13:35:08;7.90;99.90
4548;DHT22;2286;51.570;7.090;2024-02-26T13:37:36;7.80;99.90
4548;DHT22;2286;51.570;7.090;2024-02-26T13:40:07;7.90;99.90
4548;DHT22;2286;51.570;7.090;2024-02-26T13:42:34;7.90;99.90
4548;DHT22;2286;51.570;7.090;2024-02-26T13:45:02;7.90;99.90
4548;DHT22;2286;51.570;7.090;2024-02-26T13:47:32;7.90;99.90
4548;DHT22;2286;51.570;7.090;2024-02-26T13:49:59;8.00;99.90
4548;DHT22;2286;51.570;7.090;2024-02-26T13:52:26;7.90;99.90
4548;DHT22;2286;51.570;7.090;2024-02-26T13:54:53;7.90;99.90
4548;DHT22;2286;51.570;7.090;2024-02-26T13:57:21;7.80;99.90
4548;DHT22;2286;51.570;7.090;2024-02-26T13:59:49;7.80;99.90
4548;DHT22;2286;51.570;7.090;2024-02-26T14:02:17;7.70;99.90
4548;DHT22;2286;51.570;7.090;2024-02-26T14:04:44;7.70;99.90
4548;DHT22;2286;51.570;7.090;2024-02-26T14:07:11;7.60;99.90
4548;DHT22;2286;51.570;7.090;2024-02-26T14:09:38;7.60;99.90
4548;DHT22;2286;51.570;7.090;2024-02-26T14:12:06;7.60;99.90
4548;DHT22;2286;51.570;7.090;2024-02-26T14:14:34;7.60;99.90
4548;DHT22;2286;51.570;7.090;2024-02-26T14:17:04;7.60;99.90
4548;DHT22;2286;51.570;7.090;2024-02-26T14:19:31;7.70;99.90
4548;DHT22;2286;51.570;7.090;2024-02-26T14:21:58;7.70;99.90
4548;DHT22;2286;51.570;7.090;2024-02-26T14:24:25;7.70;99.90
4548;DHT22;2286;51.570;7.090;2024-02-26T14:26:52;7.70;99.90
4548;DHT22;2286;51.570;7.090;2024-02-26T14:29:20;7.70;99.90
4548;DHT22;2286;51.570;7.090;2024-02-26T14:31:48;7.60;99.90
4548;DHT22;2286;51.570;7.090;2024-02-26T14:34:15;7.60;99.90
4548;DHT22;2286;51.570;7.090;2024-02-26T14:36:44;7.60;99.90
4548;DHT22;2286;51.570;7.090;2024-02-26T14:39:12;7.60;99.90
4548;DHT22;2286;51.570;7.090;2024-02-26T14:41:39;7.50;99.90
4548;DHT22;2286;51.570;7.090;2024-02-26T14:44:06;7.50;99.90
4548;DHT22;2286;51.570;7.090;2024-02-26T14:46:33;7.50;99.90
4548;DHT22;2286;51.570;7.090;2024-02-26T14:49:02;7.50;99.90
4548;DHT22;2286;51.570;7.090;2024-02-26T14:51:29;7.50;99.90
4548;DHT22;2286;51.570;7.090;2024-02-26T14:53:56;7.50;99.90
4548;DHT22;2286;51.570;7.090;2024-02-26T14:56:24;7.50;99.90
4548;DHT22;2286;51.570;7.090;2024-02-26T14:58:51;7.50;99.90
4548;DHT22;2286;51.570;7.090;2024-02-26T15:01:18;7.60;99.90
4548;DHT22;2286;51.570;7.090;2024-02-26T15:03:45;7.60;99.90
4548;DHT22;2286;51.570;7.090;2024-02-26T15:06:14;7.60;88.70
4548;DHT22;2286;51.570;7.090;2024-02-26T15:08:41;7.60;73.50
4548;DHT22;2286;51.570;7.090;2024-02-26T15:11:08;7.60;1.00
4548;DHT22;2286;51.570;7.090;2024-02-26T15:13:36;7.60;56.50
4548;DHT22;2286;51.570;7.090;2024-02-26T15:16:04;7.60;1.00
4548;DHT22;2286;51.570;7.090;2024-02-26T15:18:31;7.60;1.00
4548;DHT22;2286;51.570;7.090;2024-02-26T15:20:58;7.60;1.00
4548;DHT22;2286;51.570;7.090;2024-02-26T15:23:26;7.60;1.00
4548;DHT22;2286;51.570;7.090;2024-02-26T15:25:53;7.70;1.00
4548;DHT22;2286;51.570;7.090;2024-02-26T15:28:20;7.70;1.00
4548;DHT22;2286;51.570;7.090;2024-02-26T15:30:47;7.70;1.00
4548;DHT22;2286;51.570;7.090;2024-02-26T15:33:14;7.70;1.00
4548;DHT22;2286;51.570;7.090;2024-02-26T15:35:43;7.70;1.00
4548;DHT22;2286;51.570;7.090;2024-02-26T15:38:10;7.60;1.00
4548;DHT22;2286;51.570;7.090;2024-02-26T15:40:40;7.60;1.00
4548;DHT22;2286;51.570;7.090;2024-02-26T15:43:07;7.60;24.00
4548;DHT22;2286;51.570;7.090;2024-02-26T15:45:34;7.60;93.20
4548;DHT22;2286;51.570;7.090;2024-02-26T15:48:01;7.60;99.90
4548;DHT22;2286;51.570;7.090;2024-02-26T15:50:28;7.50;99.90
4548;DHT22;2286;51.570;7.090;2024-02-26T15:52:55;7.50;72.00
4548;DHT22;2286;51.570;7.090;2024-02-26T15:55:24;7.50;77.30
4548;DHT22;2286;51.570;7.090;2024-02-26T15:57:52;7.50;99.90
4548;DHT22;2286;51.570;7.090;2024-02-26T16:00:19;7.40;99.90
4548;DHT22;2286;51.570;7.090;2024-02-26T16:02:47;7.40;99.90
4548;DHT22;2286;51.570;7.090;2024-02-26T16:05:15;7.30;99.90
4548;DHT22;2286;51.570;7.090;2024-02-26T16:07:45;7.30;99.90
4548;DHT22;2286;51.570;7.090;2024-02-26T16:10:15;7.30;99.90
4548;DHT22;2286;51.570;7.090;2024-02-26T16:12:48;7.20;99.90
4548;DHT22;2286;51.570;7.090;2024-02-26T16:15:17;7.20;99.90
4548;DHT22;2286;51.570;7.090;2024-02-26T16:17:46;7.20;99.90
4548;DHT22;2286;51.570;7.090;2024-02-26T16:20:15;7.20;99.90
4548;DHT22;2286;51.570;7.090;2024-02-26T16:22:43;7.20;99.90
4548;DHT22;2286;51.570;7.090;2024-02-26T16:25:11;7.20;99.90
4548;DHT22;2286;51.570;7.090;2024-02-26T16:27:38;7.20;99.90